sensor_id;sensor_type;location;lat;lon;timestamp;pressure;altitude;pressure_sealevel;temperature;humidity
55014;BME280;40916;51.632;5.552;2022-08-27T00:00:51;1013.4917861696754;;;16.1856445685855;0
55014;BME280;40916;51.632;5.552;2022-08-27T00:01:51;1013.5698102351216;;;16.14668684605675;0
55014;BME280;40916;51.632;5.552;2022-08-27T00:02:52;1013.5845878800225;;;16.12720346673043;0
55014;BME280;40916;51.632;5.552;2022-08-27T00:03:52;1013.6290995225991;;;16.101220936348;0
55014;BME280;40916;51.632;5.552;2022-08-27T00:04:52;1013.4984347932968;;;16.062237075400272;0
55014;BME280;40916;51.632;5.552;2022-08-27T00:05:52;1013.5317165631656;;;16.036241115436628;0
55014;BME280;40916;51.632;5.552;2022-08-27T00:06:52;1013.6208280406686;;;16.010239772728923;0
55014;BME280;40916;51.632;5.552;2022-08-27T00:07:52;1013.5684126329804;;;15.984233041027483;0
55014;BME280;40916;51.632;5.552;2022-08-27T00:08:52;1013.6424923357529;;;15.95171703859161;0
55014;BME280;40916;51.632;5.552;2022-08-27T00:09:52;1013.6533232341245;;;15.925698158753772;0
55014;BME280;40916;51.632;5.552;2022-08-27T00:10:52;1013.6341585060719;;;15.88665969445881;0
55014;BME280;40916;51.632;5.552;2022-08-27T00:11:53;1013.5664499745299;;;15.841099408203952;0
55014;BME280;40916;51.632;5.552;2022-08-27T00:12:53;1013.5177401376146;;;15.821568482723404;0
55014;BME280;40916;51.632;5.552;2022-08-27T00:13:53;1013.5920743537027;;;15.815057495037415;0
55014;BME280;40916;51.632;5.552;2022-08-27T00:14:53;1013.5432338014641;;;15.789010145694835;0
55014;BME280;40916;51.632;5.552;2022-08-27T00:15:53;1013.5241498813068;;;15.762957353843682;0
55014;BME280;40916;51.632;5.552;2022-08-27T00:16:53;1013.5346895581525;;;15.7303837008389;0
55014;BME280;40916;51.632;5.552;2022-08-27T00:17:53;1013.474755814814;;;15.710835417236279;0
55014;BME280;40916;51.632;5.552;2022-08-27T00:18:53;1013.4447189079634;;;15.697801521594666;0
55014;BME280;40916;51.632;5.552;2022-08-27T00:19:53;1013.4815193914375;;;15.67824811628196;0
55014;BME280;40916;51.632;5.552;2022-08-27T00:20:53;1013.4925423224671;;;15.671729630952537;0
55014;BME280;40916;51.632;5.552;2022-08-27T00:21:54;1013.4998425468917;;;15.665210803677727;0
55014;BME280;40916;51.632;5.552;2022-08-27T00:22:53;1013.413236185609;;;15.619569429900306;0
55014;BME280;40916;51.632;5.552;2022-08-27T00:23:54;1013.4462596104887;;;15.600003701971765;0
55014;BME280;40916;51.632;5.552;2022-08-27T00:24:54;1013.4423823917584;;;15.59348110670647;0
55014;BME280;40916;51.632;5.552;2022-08-27T00:25:54;1013.4867078540855;;;15.580434886641285;0
55014;BME280;40916;51.632;5.552;2022-08-27T00:26:54;1013.5313512078617;;;15.580434886641285;0
55014;BME280;40916;51.632;5.552;2022-08-27T00:27:54;1013.4001568482953;;;15.541287982949353;0
55014;BME280;40916;51.632;5.552;2022-08-27T00:28:54;1013.4782760557204;;;15.541287982949353;0
55014;BME280;40916;51.632;5.552;2022-08-27T00:29:54;1013.4478284549325;;;15.515183169542496;0
55014;BME280;40916;51.632;5.552;2022-08-27T00:31:54;1013.4052844162156;;;15.456427185087279;0
55014;BME280;40916;51.632;5.552;2022-08-27T00:32:55;1013.3896476695592;;;15.430304441900489;0
55014;BME280;40916;51.632;5.552;2022-08-27T00:33:55;1013.4485653752544;;;15.410708755416845;0
55014;BME280;40916;51.632;5.552;2022-08-27T00:34:55;1013.3808253551105;;;15.384576329451058;0
55014;BME280;40916;51.632;5.552;2022-08-27T00:35:55;1013.4134690260814;;;15.358438361552256;0
55014;BME280;40916;51.632;5.552;2022-08-27T00:36:55;1013.4053987049626;;;15.338831244826427;0
55014;BME280;40916;51.632;5.552;2022-08-27T00:37:55;1013.3861614697463;;;15.319221004363893;0
55014;BME280;40916;51.632;5.552;2022-08-27T00:38:55;1013.4008158703605;;;15.31268356290446;0
55014;BME280;40916;51.632;5.552;2022-08-27T00:39:55;1013.4073640212638;;;15.286530321157283;0
55014;BME280;40916;51.632;5.552;2022-08-27T00:40:55;1013.4071383752129;;;15.279991141233332;0
55014;BME280;40916;51.632;5.552;2022-08-27T00:41:55;1013.4027350363323;;;15.260371513059535;0
55014;BME280;40916;51.632;5.552;2022-08-27T00:42:56;1013.3836828183665;;;15.24729001958724;0
55014;BME280;40916;51.632;5.552;2022-08-27T00:43:58;1013.3606717409392;;;15.227665165299378;0
55014;BME280;40916;51.632;5.552;2022-08-27T00:44:56;1013.393650133144;;;15.214580185193913;0
55014;BME280;40916;51.632;5.552;2022-08-27T00:45:57;1013.3968830048503;;;15.201493809001612;0
55014;BME280;40916;51.632;5.552;2022-08-27T00:46:57;1013.3252733385059;;;15.175316865075242;0
55014;BME280;40916;51.632;5.552;2022-08-27T00:47:57;1013.2900483812407;;;15.129493748208937;0
55014;BME280;40916;51.632;5.552;2022-08-27T00:48:59;1013.3824425694515;;;15.1163982774323;0
55014;BME280;40916;51.632;5.552;2022-08-27T00:49:57;1013.3588144484413;;;15.083653463826174;0
55014;BME280;40916;51.632;5.552;2022-08-27T00:50:56;1013.3874536446667;;;15.057451294132026;0
55014;BME280;40916;51.632;5.552;2022-08-27T00:51:57;1013.4274950628687;;;15.03779597654884;0
55014;BME280;40916;51.632;5.552;2022-08-27T00:52:59;1013.3771927210145;;;14.991921250901537;0
55014;BME280;40916;51.632;5.552;2022-08-27T00:53:57;1013.462650207825;;;14.991921250901537;0
55014;BME280;40916;51.632;5.552;2022-08-27T00:54:57;1013.4317502279124;;;14.965699368598045;0
55014;BME280;40916;51.632;5.552;2022-08-27T00:55:57;1013.3302429319075;;;14.939471839173297;0
55014;BME280;40916;51.632;5.552;2022-08-27T00:56:57;1013.3819518556562;;;14.932914073673903;0
55014;BME280;40916;51.632;5.552;2022-08-27T00:58:00;1013.4113677659551;;;14.926355954708882;0
55014;BME280;40916;51.632;5.552;2022-08-27T00:58:57;1013.4485179258162;;;14.926355954708882;0
55014;BME280;40916;51.632;5.552;2022-08-27T00:59:57;1013.4630711575796;;;14.919797482173994;0
55014;BME280;40916;51.632;5.552;2022-08-27T01:00:58;1013.4441882989787;;;14.913238655964957;0
55014;BME280;40916;51.632;5.552;2022-08-27T01:01:58;1013.3946503837153;;;14.886999812300196;0
55014;BME280;40916;51.632;5.552;2022-08-27T01:02:58;1013.393382810475;;;14.860755301495686;0
55014;BME280;40916;51.632;5.552;2022-08-27T01:03:58;1013.4515201611641;;;14.834505116857574;0
55014;BME280;40916;51.632;5.552;2022-08-27T01:04:59;1013.4714816738563;;;14.78855362090723;0
55014;BME280;40916;51.632;5.552;2022-08-27T01:05:58;1013.4282364159626;;;14.742584692294361;0
55014;BME280;40916;51.632;5.552;2022-08-27T01:06:58;1013.4257718750767;;;14.696598294910185;0
55014;BME280;40916;51.632;5.552;2022-08-27T01:08:01;1013.408383755602;;;14.65059439254614;0
55014;BME280;40916;51.632;5.552;2022-08-27T01:09:00;1013.3760763961525;;;14.604572948893509;0
55014;BME280;40916;51.632;5.552;2022-08-27T01:09:59;1013.4224293766176;;;14.571689729412824;0
55014;BME280;40916;51.632;5.552;2022-08-27T01:10:58;1013.4601276590755;;;14.51905789115775;0
55014;BME280;40916;51.632;5.552;2022-08-27T01:11:58;1013.5187151222515;;;14.50589633259144;0
55014;BME280;40916;51.632;5.552;2022-08-27T01:12:59;1013.3628820393524;;;14.446651470468375;0
55014;BME280;40916;51.632;5.552;2022-08-27T01:13:59;1013.4177189979663;;;14.433481974096207;0
55014;BME280;40916;51.632;5.552;2022-08-27T01:14:59;1013.3785090185165;;;14.400551904924853;0
55014;BME280;40916;51.632;5.552;2022-08-27T01:15:59;1013.437881624744;;;14.400551904924853;0
55014;BME280;40916;51.632;5.552;2022-08-27T01:16:59;1013.3541091433506;;;14.367612784655968;0
55014;BME280;40916;51.632;5.552;2022-08-27T01:17:59;1013.3388357615694;;;14.361023873286097;0
55014;BME280;40916;51.632;5.552;2022-08-27T01:18:59;1013.3639412226869;;;14.347844962367773;0
55014;BME280;40916;51.632;5.552;2022-08-27T01:20:00;1013.3556469158607;;;14.334664599825224;0
55014;BME280;40916;51.632;5.552;2022-08-27T01:21:00;1013.3135142661814;;;14.314891332325924;0
55014;BME280;40916;51.632;5.552;2022-08-27T01:22:02;1013.2945211155783;;;14.308299516411008;0
55014;BME280;40916;51.632;5.552;2022-08-27T01:23:02;1013.2977869384249;;;14.301707336941575;0
55014;BME280;40916;51.632;5.552;2022-08-27T01:24:02;1013.4016666993571;;;14.301707336941575;0
55014;BME280;40916;51.632;5.552;2022-08-27T01:25:04;1013.3071244264381;;;14.275334981353485;0
55014;BME280;40916;51.632;5.552;2022-08-27T01:26:00;1013.3363503673133;;;14.268740982487191;0
55014;BME280;40916;51.632;5.552;2022-08-27T01:27:00;1013.3099288733006;;;14.262146619416367;0
55014;BME280;40916;51.632;5.552;2022-08-27T01:28:01;1013.3465701581594;;;14.255551892032525;0
55014;BME280;40916;51.632;5.552;2022-08-27T01:29:00;1013.3377759136492;;;14.235765522917383;0
55014;BME280;40916;51.632;5.552;2022-08-27T01:30:02;1013.3975879883815;;;14.242361343891627;0
55014;BME280;40916;51.632;5.552;2022-08-27T01:31:01;1013.34148537477;;;14.235765522917383;0
55014;BME280;40916;51.632;5.552;2022-08-27T01:32:04;1013.390168956569;;;14.242361343891627;0
55014;BME280;40916;51.632;5.552;2022-08-27T01:33:06;1013.2895529301076;;;14.235765522917383;0
55014;BME280;40916;51.632;5.552;2022-08-27T01:34:02;1013.3419452616039;;;14.242361343891627;0
55014;BME280;40916;51.632;5.552;2022-08-27T01:35:01;1013.338694082012;;;14.248956800227138;0
55014;BME280;40916;51.632;5.552;2022-08-27T01:36:01;1013.2677550016518;;;14.242361343891627;0
55014;BME280;40916;51.632;5.552;2022-08-27T01:37:01;1013.3308167195206;;;14.242361343891627;0
55014;BME280;40916;51.632;5.552;2022-08-27T01:38:01;1013.3373145802708;;;14.229169337195746;0
55014;BME280;40916;51.632;5.552;2022-08-27T01:39:01;1013.3261863567284;;;14.229169337195746;0
55014;BME280;40916;51.632;5.552;2022-08-27T01:40:02;1013.2659106981476;;;14.215975871075432;0
55014;BME280;40916;51.632;5.552;2022-08-27T01:41:01;1013.3428726365498;;;14.20278094466055;0
55014;BME280;40916;51.632;5.552;2022-08-27T01:42:02;1013.3535311241313;;;14.19618293357054;0
55014;BME280;40916;51.632;5.552;2022-08-27T01:43:02;1013.3224429392232;;;14.176386707463084;0
55014;BME280;40916;51.632;5.552;2022-08-27T01:44:02;1013.320535181227;;;14.1499866186284;0
55014;BME280;40916;51.632;5.552;2022-08-27T01:45:03;1013.2745852403424;;;14.130182707663344;0
55014;BME280;40916;51.632;5.552;2022-08-27T01:46:02;1013.2805439037639;;;14.110375498271594;0
55014;BME280;40916;51.632;5.552;2022-08-27T01:47:02;1013.2916692586026;;;14.110375498271594;0
55014;BME280;40916;51.632;5.552;2022-08-27T01:48:02;1013.3426058909296;;;14.0971688580921;0
55014;BME280;40916;51.632;5.552;2022-08-27T01:49:02;1013.2859945570959;;;14.083960749755597;0
55014;BME280;40916;51.632;5.552;2022-08-27T01:50:03;1013.315660475577;;;14.083960749755597;0
55014;BME280;40916;51.632;5.552;2022-08-27T01:51:03;1013.3025443310809;;;14.05754012510252;0
55014;BME280;40916;51.632;5.552;2022-08-27T01:52:02;1013.2770878873014;;;14.064145832537633;0
55014;BME280;40916;51.632;5.552;2022-08-27T01:53:04;1013.3475414252431;;;14.064145832537633;0
55014;BME280;40916;51.632;5.552;2022-08-27T01:54:03;1013.3846222522459;;;14.064145832537633;0
55014;BME280;40916;51.632;5.552;2022-08-27T01:55:03;1013.3623737545909;;;14.064145832537633;0
55014;BME280;40916;51.632;5.552;2022-08-27T01:56:03;1013.3507486993271;;;14.05754012510252;0
55014;BME280;40916;51.632;5.552;2022-08-27T01:57:03;1013.3586656720723;;;14.064145832537633;0
55014;BME280;40916;51.632;5.552;2022-08-27T01:58:03;1013.3512495073984;;;14.064145832537633;0
55014;BME280;40916;51.632;5.552;2022-08-27T01:59:03;1013.3814138938095;;;14.070751172384998;0
55014;BME280;40916;51.632;5.552;2022-08-27T02:00:04;1013.2914202490073;;;14.05754012510252;0
55014;BME280;40916;51.632;5.552;2022-08-27T02:01:05;1013.2919202074455;;;14.064145832537633;0
55014;BME280;40916;51.632;5.552;2022-08-27T02:02:04;1013.2983347306135;;;14.050934049969825;0
55014;BME280;40916;51.632;5.552;2022-08-27T02:03:04;1013.2867078858783;;;14.044327607029672;0
55014;BME280;40916;51.632;5.552;2022-08-27T02:04:04;1013.2936191902531;;;14.037720796172145;0
55014;BME280;40916;51.632;5.552;2022-08-27T02:05:04;1013.2342933181578;;;14.037720796172145;0
55014;BME280;40916;51.632;5.552;2022-08-27T02:06:05;1013.2342933181578;;;14.037720796172145;0
55014;BME280;40916;51.632;5.552;2022-08-27T02:07:04;1013.1776650308999;;;14.024506070265062;0
55014;BME280;40916;51.632;5.552;2022-08-27T02:08:04;1013.2449115604046;;;14.031113617287279;0
55014;BME280;40916;51.632;5.552;2022-08-27T02:09:04;1013.2179423719962;;;14.017898154995446;0
55014;BME280;40916;51.632;5.552;2022-08-27T02:10:06;1013.1576002487418;;;14.004681219273596;0
55014;BME280;40916;51.632;5.552;2022-08-27T02:11:05;1013.2031115481418;;;14.017898154995446;0
55014;BME280;40916;51.632;5.552;2022-08-27T02:12:05;1013.2661425629017;;;14.017898154995446;0
55014;BME280;40916;51.632;5.552;2022-08-27T02:13:05;1013.1756262888712;;;13.998072198601037;0
55014;BME280;40916;51.632;5.552;2022-08-27T02:14:05;1013.2497772231253;;;13.998072198601037;0
55014;BME280;40916;51.632;5.552;2022-08-27T02:15:08;1013.2413317778484;;;13.984853051081515;0
55014;BME280;40916;51.632;5.552;2022-08-27T02:16:05;1013.192100033831;;;13.971632427927432;0
55014;BME280;40916;51.632;5.552;2022-08-27T02:17:05;1013.2360676311941;;;13.965021562711502;0
55014;BME280;40916;51.632;5.552;2022-08-27T02:18:06;1013.1375870812093;;;13.938574408344273;0
55014;BME280;40916;51.632;5.552;2022-08-27T02:19:05;1013.2000797195798;;;13.931961695823802;0
55014;BME280;40916;51.632;5.552;2022-08-27T02:20:06;1013.1873675540198;;;13.91212133906308;0
55014;BME280;40916;51.632;5.552;2022-08-27T02:21:06;1013.1444517802666;;;13.88566234778095;0
55014;BME280;40916;51.632;5.552;2022-08-27T02:22:06;1013.2212097523201;;;13.872430629171763;0
55014;BME280;40916;51.632;5.552;2022-08-27T02:23:06;1013.2301474742653;;;13.845962741575384;0
55014;BME280;40916;51.632;5.552;2022-08-27T02:24:06;1013.2125616990792;;;13.812869528446306;0
55014;BME280;40916;51.632;5.552;2022-08-27T02:25:07;1013.1838226661231;;;13.779767020506817;0
55014;BME280;40916;51.632;5.552;2022-08-27T02:26:06;1013.2112026021235;;;13.753278312518265;0
55014;BME280;40916;51.632;5.552;2022-08-27T02:27:06;1013.0928942795766;;;13.713534064368673;0
55014;BME280;40916;51.632;5.552;2022-08-27T02:28:06;1013.140484026665;;;13.706908716520395;0
55014;BME280;40916;51.632;5.552;2022-08-27T02:29:06;1013.0973994723216;;;13.68040358818616;0
55014;BME280;40916;51.632;5.552;2022-08-27T02:30:07;1013.1635027176332;;;13.673776371305848;0
55014;BME280;40916;51.632;5.552;2022-08-27T02:31:07;1013.1845539285889;;;13.660520815002425;0
55014;BME280;40916;51.632;5.552;2022-08-27T02:32:07;1013.137723295796;;;13.634005209074171;0
55014;BME280;40916;51.632;5.552;2022-08-27T02:33:07;1013.1223080512921;;;13.627375370826655;0
55014;BME280;40916;51.632;5.552;2022-08-27T02:34:07;1013.1457280936673;;;13.640634672502852;0
55014;BME280;40916;51.632;5.552;2022-08-27T02:35:07;1013.1673602518702;;;13.634005209074171;0
55014;BME280;40916;51.632;5.552;2022-08-27T02:36:07;1013.121109922812;;;13.614114569424178;0
55014;BME280;40916;51.632;5.552;2022-08-27T02:37:07;1013.1760746575719;;;13.607483606043633;0
55014;BME280;40916;51.632;5.552;2022-08-27T02:38:07;1013.1976970932446;;;13.600852267393094;0
55014;BME280;40916;51.632;5.552;2022-08-27T02:39:07;1013.0921584699287;;;13.580955998692218;0
55014;BME280;40916;51.632;5.552;2022-08-27T02:40:08;1013.0835314800466;;;13.5676899411372;0
55014;BME280;40916;51.632;5.552;2022-08-27T02:41:07;1013.0829198773018;;;13.561056348494109;0
55014;BME280;40916;51.632;5.552;2022-08-27T02:42:07;1013.0674908308479;;;13.554422379789738;0
55014;BME280;40916;51.632;5.552;2022-08-27T02:43:08;1013.0860107193557;;;13.554422379789738;0
55014;BME280;40916;51.632;5.552;2022-08-27T02:44:08;1013.0810758688486;;;13.541153313744239;0
55014;BME280;40916;51.632;5.552;2022-08-27T02:45:08;1013.024282404209;;;13.527882742094388;0
55014;BME280;40916;51.632;5.552;2022-08-27T02:46:08;1013.0143860662987;;;13.501337078352734;0
55014;BME280;40916;51.632;5.552;2022-08-27T02:47:08;1012.9427670580012;;;13.488061984444656;0
55014;BME280;40916;51.632;5.552;2022-08-27T02:48:08;1012.9896526625497;;;13.474785381299675;0
55014;BME280;40916;51.632;5.552;2022-08-27T02:49:08;1013.103187523;;;13.461507268007836;0
55014;BME280;40916;51.632;5.552;2022-08-27T02:50:09;1013.0666624479555;;;13.428305371907477;0
55014;BME280;40916;51.632;5.552;2022-08-27T02:51:08;1013.0980516197684;;;13.40837969514697;0
55014;BME280;40916;51.632;5.552;2022-08-27T02:52:09;1013.0856441461933;;;13.39509401744574;0
55014;BME280;40916;51.632;5.552;2022-08-27T02:53:09;1013.088694949526;;;13.38845061029404;0
55014;BME280;40916;51.632;5.552;2022-08-27T02:54:09;1013.0594956963315;;;13.355227886948732;0
55014;BME280;40916;51.632;5.552;2022-08-27T02:55:09;1013.1045841049015;;;13.361873190344301;0
55014;BME280;40916;51.632;5.552;2022-08-27T02:56:09;1013.0873865335304;;;13.375162658816649;0
55014;BME280;40916;51.632;5.552;2022-08-27T02:57:09;1013.1122137095472;;;13.401737045691945;0
55014;BME280;40916;51.632;5.552;2022-08-27T02:58:09;1013.0605393197123;;;13.441587264552364;0
55014;BME280;40916;51.632;5.552;2022-08-27T02:59:09;1013.0692223180719;;;13.454867644772278;0
55014;BME280;40916;51.632;5.552;2022-08-27T03:00:10;1013.1625281318775;;;13.501337078352734;0
55014;BME280;40916;51.632;5.552;2022-08-27T03:01:09;1013.1372295230279;;;13.507974059627099;0
55014;BME280;40916;51.632;5.552;2022-08-27T03:02:09;1013.102061449443;;;13.527882742094388;0
55014;BME280;40916;51.632;5.552;2022-08-27T03:03:10;1013.1174963168079;;;13.53451821617653;0
55014;BME280;40916;51.632;5.552;2022-08-27T03:04:10;1013.031689930031;;;13.527882742094388;0
55014;BME280;40916;51.632;5.552;2022-08-27T03:05:10;1013.1150273980369;;;13.54778803491087;0
55014;BME280;40916;51.632;5.552;2022-08-27T03:06:10;1013.1335470278193;;;13.54778803491087;0
55014;BME280;40916;51.632;5.552;2022-08-27T03:07:10;1013.1440416975285;;;13.541153313744239;0
55014;BME280;40916;51.632;5.552;2022-08-27T03:08:10;1013.1353953422824;;;13.527882742094388;0
55014;BME280;40916;51.632;5.552;2022-08-27T03:09:10;1013.1366339511655;;;13.541153313744239;0
55014;BME280;40916;51.632;5.552;2022-08-27T03:10:11;1013.058852643534;;;13.541153313744239;0
55014;BME280;40916;51.632;5.552;2022-08-27T03:11:10;1013.1292262052858;;;13.541153313744239;0
55014;BME280;40916;51.632;5.552;2022-08-27T03:12:10;1013.1218184598895;;;13.541153313744239;0
55014;BME280;40916;51.632;5.552;2022-08-27T03:13:11;1013.1150273980369;;;13.54778803491087;0
55014;BME280;40916;51.632;5.552;2022-08-27T03:14:11;1013.0347674819661;;;13.561056348494109;0
55014;BME280;40916;51.632;5.552;2022-08-27T03:15:12;1013.1254961970623;;;13.580955998692218;0
55014;BME280;40916;51.632;5.552;2022-08-27T03:16:11;1013.1551297405099;;;13.580955998692218;0
55014;BME280;40916;51.632;5.552;2022-08-27T03:17:11;1013.1180878124089;;;13.580955998692218;0
55014;BME280;40916;51.632;5.552;2022-08-27T03:18:11;1013.1378227462322;;;13.594220553359651;0
55014;BME280;40916;51.632;5.552;2022-08-27T03:19:11;1013.1877901987606;;;13.614114569424178;0
55014;BME280;40916;51.632;5.552;2022-08-27T03:20:11;1013.1464394037642;;;13.607483606043633;0
55014;BME280;40916;51.632;5.552;2022-08-27T03:21:15;1013.1130997524763;;;13.607483606043633;0
55014;BME280;40916;51.632;5.552;2022-08-27T03:22:11;1013.1402323135072;;;13.62074515764758;0
55014;BME280;40916;51.632;5.552;2022-08-27T03:23:12;1013.0661420860946;;;13.62074515764758;0
55014;BME280;40916;51.632;5.552;2022-08-27T03:24:12;1013.0902708594748;;;13.600852267393094;0
55014;BME280;40916;51.632;5.552;2022-08-27T03:25:14;1013.128518840428;;;13.614114569424178;0
55014;BME280;40916;51.632;5.552;2022-08-27T03:26:12;1013.1068917051884;;;13.62074515764758;0
55014;BME280;40916;51.632;5.552;2022-08-27T03:27:12;1013.1297171820537;;;13.627375370826655;0
55014;BME280;40916;51.632;5.552;2022-08-27T03:28:12;1013.0963760974332;;;13.627375370826655;0
55014;BME280;40916;51.632;5.552;2022-08-27T03:29:12;1013.0704441494972;;;13.627375370826655;0
55014;BME280;40916;51.632;5.552;2022-08-27T03:30:14;1013.0944559744134;;;13.647263761225375;0
55014;BME280;40916;51.632;5.552;2022-08-27T03:31:13;1013.1073413091697;;;13.667148780282087;0
55014;BME280;40916;51.632;5.552;2022-08-27T03:32:13;1013.1165088094466;;;13.687030431035431;0
55014;BME280;40916;51.632;5.552;2022-08-27T03:33:13;1013.1336521084115;;;13.713534064368673;0
55014;BME280;40916;51.632;5.552;2022-08-27T03:34:13;1012.9971326470119;;;13.72015903874727;0
55014;BME280;40916;51.632;5.552;2022-08-27T03:35:13;1013.0359031544068;;;13.74003172218612;0
55014;BME280;40916;51.632;5.552;2022-08-27T03:36:13;1013.2012217903175;;;13.766523411660245;0
55014;BME280;40916;51.632;5.552;2022-08-27T03:37:13;1013.107446418374;;;13.753278312518265;0
55014;BME280;40916;51.632;5.552;2022-08-27T03:38:13;1013.1037408421365;;;13.753278312518265;0
55014;BME280;40916;51.632;5.552;2022-08-27T03:39:13;1013.05927393672;;;13.753278312518265;0
55014;BME280;40916;51.632;5.552;2022-08-27T03:40:13;1013.1715763079711;;;13.766523411660245;0
55014;BME280;40916;51.632;5.552;2022-08-27T03:41:13;1013.1382251495838;;;13.766523411660245;0
55014;BME280;40916;51.632;5.552;2022-08-27T03:42:14;1013.1838226661231;;;13.779767020506817;0
55014;BME280;40916;51.632;5.552;2022-08-27T03:43:14;1013.1838226661231;;;13.779767020506817;0
55014;BME280;40916;51.632;5.552;2022-08-27T03:46:21;1013.089706934006;;;13.806249770889238;0
55014;BME280;40916;51.632;5.552;2022-08-27T03:47:14;1013.1284286872778;;;13.826107928294924;0
55014;BME280;40916;51.632;5.552;2022-08-27T03:48:14;1013.2036543055658;;;13.839344841865739;0
55014;BME280;40916;51.632;5.552;2022-08-27T03:49:15;1013.1660417181351;;;13.83272657080936;0
55014;BME280;40916;51.632;5.552;2022-08-27T03:50:14;1013.1311678528256;;;13.859197427399593;0
55014;BME280;40916;51.632;5.552;2022-08-27T03:51:14;1013.1778115559656;;;13.88566234778095;0
55014;BME280;40916;51.632;5.552;2022-08-27T03:52:15;1013.1455249994287;;;13.898892584115512;0
55014;BME280;40916;51.632;5.552;2022-08-27T03:53:15;1013.1391784465295;;;13.91212133906308;0
55014;BME280;40916;51.632;5.552;2022-08-27T03:54:15;1013.1360027373943;;;13.918735161293938;0
55014;BME280;40916;51.632;5.552;2022-08-27T03:55:15;1013.1889586749696;;;13.931961695823802;0
55014;BME280;40916;51.632;5.552;2022-08-27T03:56:15;1013.1593025613348;;;13.931961695823802;0
55014;BME280;40916;51.632;5.552;2022-08-27T03:57:15;1013.1974260913689;;;13.945186751182678;0
55014;BME280;40916;51.632;5.552;2022-08-27T03:58:15;1013.1492335255232;;;13.945186751182678;0
55014;BME280;40916;51.632;5.552;2022-08-27T03:59:15;1013.227607912756;;;13.951798724449642;0
55014;BME280;40916;51.632;5.552;2022-08-27T04:00:15;1013.2207167900666;;;13.958410328255738;0
55014;BME280;40916;51.632;5.552;2022-08-27T04:01:15;1013.1470929008161;;;13.965021562711502;0
55014;BME280;40916;51.632;5.552;2022-08-27T04:02:15;1013.2212385046225;;;13.965021562711502;0
55014;BME280;40916;51.632;5.552;2022-08-27T04:03:15;1013.193718970193;;;13.945186751182678;0
55014;BME280;40916;51.632;5.552;2022-08-27T04:04:16;1013.1847228548052;;;13.925348613510593;0
55014;BME280;40916;51.632;5.552;2022-08-27T04:05:16;1013.1317647395001;;;13.91212133906308;0
55014;BME280;40916;51.632;5.552;2022-08-27T04:06:16;1013.1836606988713;;;13.91212133906308;0
55014;BME280;40916;51.632;5.552;2022-08-27T04:07:16;1013.1540058620405;;;13.91212133906308;0
55014;BME280;40916;51.632;5.552;2022-08-27T04:08:16;1013.1577127162207;;;13.91212133906308;0
55014;BME280;40916;51.632;5.552;2022-08-27T04:09:16;1013.1794205459522;;;13.905507146707219;0
55014;BME280;40916;51.632;5.552;2022-08-27T04:10:16;1013.1349389330468;;;13.905507146707219;0
55014;BME280;40916;51.632;5.552;2022-08-27T04:11:16;1013.1651264249443;;;13.91212133906308;0
55014;BME280;40916;51.632;5.552;2022-08-27T04:12:16;1013.157179737321;;;13.905507146707219;0
55014;BME280;40916;51.632;5.552;2022-08-27T04:13:17;1013.1561092317464;;;13.892277651177064;0
55014;BME280;40916;51.632;5.552;2022-08-27T04:14:17;1013.1412824537686;;;13.892277651177064;0
55014;BME280;40916;51.632;5.552;2022-08-27T04:15:17;1013.092020675184;;;13.879046673816191;0
55014;BME280;40916;51.632;5.552;2022-08-27T04:16:17;1013.1237549968384;;;13.859197427399593;0
55014;BME280;40916;51.632;5.552;2022-08-27T04:17:17;1013.1369414478224;;;13.839344841865739;0
55014;BME280;40916;51.632;5.552;2022-08-27T04:18:17;1013.1469594995374;;;13.826107928294924;0